Time;durP1;ratioP1;P1;durP2;ratioP2;P2;SDS_P1;SDS_P2;PMS_P1;PMS_P2;Temp;Humidity;BMP_temperature;BMP_pressure;BME280_temperature;BME280_humidity;BME280_pressure;Samples;Min_cycle;Max_cycle;Signal;HPM_P1;HPM_P2
2023/09/20 00:00:27;;;;;;;4.57;1.75;;;18.60;92.10;;;;;;5073407;28;20577;-66
2023/09/20 00:02:55;;;;;;;3.08;1.33;;;18.50;92.10;;;;;;5076070;28;20197;-65
2023/09/20 00:05:22;;;;;;;1.35;1.23;;;18.50;92.10;;;;;;5068528;28;20205;-65
2023/09/20 00:07:50;;;;;;;3.20;1.50;;;18.50;92.20;;;;;;5076006;28;20214;-66
2023/09/20 00:10:18;;;;;;;3.03;1.40;;;18.50;92.20;;;;;;5069194;28;20189;-66
2023/09/20 00:12:45;;;;;;;2.05;1.35;;;18.50;92.30;;;;;;5069631;28;20502;-65
2023/09/20 00:15:14;;;;;;;1.67;1.20;;;18.40;92.20;;;;;;5070309;28;20218;-66
2023/09/20 00:17:41;;;;;;;2.42;1.48;;;18.40;92.30;;;;;;5074917;28;20676;-65
2023/09/20 00:20:12;;;;;;;3.28;1.63;;;18.40;92.30;;;;;;5068803;28;20278;-66
2023/09/20 00:22:41;;;;;;;1.70;1.40;;;18.50;92.30;;;;;;5074227;28;20251;-66
2023/09/20 00:25:10;;;;;;;1.85;1.27;;;18.40;92.30;;;;;;5077107;28;20192;-66
2023/09/20 00:27:38;;;;;;;1.65;1.15;;;18.50;92.40;;;;;;5074242;28;20280;-65
2023/09/20 00:30:09;;;;;;;4.93;1.58;;;18.50;92.40;;;;;;5069285;28;20609;-66
2023/09/20 00:32:40;;;;;;;2.20;1.35;;;18.50;92.40;;;;;;5072126;28;20623;-66
2023/09/20 00:35:10;;;;;;;1.23;1.05;;;18.90;92.60;;;;;;5075348;28;20591;-65
2023/09/20 00:37:39;;;;;;;1.67;1.30;;;18.50;92.60;;;;;;5070899;28;20283;-66
2023/09/20 00:40:15;;;;;;;2.60;0.95;;;18.50;92.40;;;;;;5050452;28;20212;-66
2023/09/20 00:42:43;;;;;;;2.83;1.60;;;18.50;92.40;;;;;;5074099;28;20193;-65
2023/09/20 00:45:13;;;;;;;4.25;1.50;;;18.50;92.40;;;;;;5050268;28;20239;-65
2023/09/20 00:47:44;;;;;;;3.58;1.60;;;18.40;92.40;;;;;;5073344;28;20227;-66
2023/09/20 00:50:12;;;;;;;4.03;1.63;;;18.40;92.40;;;;;;5061082;28;20193;-65
2023/09/20 00:52:41;;;;;;;2.63;1.35;;;18.40;92.40;;;;;;5060558;28;20228;-65
2023/09/20 00:55:13;;;;;;;1.83;1.20;;;18.30;92.40;;;;;;5077122;28;20274;-65
2023/09/20 00:57:40;;;;;;;1.67;1.23;;;18.30;92.40;;;;;;5073297;28;20193;-66
2023/09/20 01:00:19;;;;;;;2.42;1.33;;;18.30;92.40;;;;;;5073674;28;20213;-65
2023/09/20 01:02:49;;;;;;;1.65;1.38;;;18.30;92.50;;;;;;5079686;28;20193;-65
2023/09/20 01:05:21;;;;;;;1.58;1.20;;;18.30;92.50;;;;;;5069084;28;20285;-65
2023/09/20 01:07:50;;;;;;;1.55;1.38;;;18.30;92.50;;;;;;5092137;28;20190;-65
2023/09/20 01:10:22;;;;;;;2.85;1.48;;;18.30;92.50;;;;;;5091197;28;20239;-65
2023/09/20 01:12:51;;;;;;;2.00;1.30;;;18.30;92.50;;;;;;5085612;28;20275;-65
2023/09/20 01:15:20;;;;;;;2.10;1.70;;;18.20;92.50;;;;;;5089486;28;20208;-65
2023/09/20 01:17:49;;;;;;;2.78;1.98;;;18.20;92.50;;;;;;5073021;28;20205;-65
2023/09/20 01:20:18;;;;;;;2.85;1.70;;;18.10;92.50;;;;;;5079773;28;20278;-66
2023/09/20 01:22:47;;;;;;;2.92;1.60;;;18.10;92.60;;;;;;5086624;28;20200;-65
2023/09/20 01:25:23;;;;;;;1.60;1.42;;;18.10;92.60;;;;;;5092385;28;20192;-66
2023/09/20 01:27:55;;;;;;;1.95;1.48;;;18.10;92.60;;;;;;5071788;28;20650;-65
2023/09/20 01:30:24;;;;;;;2.38;1.60;;;18.00;92.60;;;;;;5091873;28;20189;-65
2023/09/20 01:32:53;;;;;;;3.30;2.00;;;18.00;92.70;;;;;;5089508;28;20270;-65
2023/09/20 01:35:21;;;;;;;2.78;1.60;;;18.00;92.70;;;;;;5077639;28;20197;-65
2023/09/20 01:37:50;;;;;;;2.47;1.58;;;17.90;92.70;;;;;;5083653;28;20258;-65
2023/09/20 01:40:19;;;;;;;3.17;1.90;;;17.90;92.80;;;;;;5091943;28;20242;-65
2023/09/20 01:42:47;;;;;;;1.70;1.35;;;17.90;92.80;;;;;;5091201;28;20201;-65
2023/09/20 01:45:16;;;;;;;2.58;1.60;;;17.90;92.80;;;;;;5072798;28;20651;-65
2023/09/20 01:47:49;;;;;;;2.72;1.30;;;17.90;92.80;;;;;;5081577;28;20228;-65
2023/09/20 01:50:19;;;;;;;2.08;1.60;;;17.90;92.90;;;;;;5090812;28;20192;-65
2023/09/20 01:52:48;;;;;;;3.83;1.63;;;17.90;92.90;;;;;;5090049;28;20230;-66
2023/09/20 01:55:18;;;;;;;2.13;1.60;;;17.90;93.00;;;;;;5085824;28;20279;-65
2023/09/20 01:57:46;;;;;;;3.53;2.00;;;17.90;93.00;;;;;;5086510;28;20695;-65
2023/09/20 02:00:22;;;;;;;2.63;1.55;;;17.90;93.00;;;;;;5067378;28;20217;-65
2023/09/20 02:02:51;;;;;;;2.17;1.85;;;17.90;93.00;;;;;;5085510;28;20188;-65
2023/09/20 02:05:18;;;;;;;2.72;1.70;;;17.90;93.10;;;;;;5072408;28;20200;-65
2023/09/20 02:07:47;;;;;;;3.10;1.40;;;18.00;93.10;;;;;;5091134;28;20231;-65
2023/09/20 02:10:16;;;;;;;2.13;1.40;;;18.00;93.10;;;;;;5091737;28;20694;-65
2023/09/20 02:12:47;;;;;;;1.50;1.30;;;18.00;93.10;;;;;;5090797;28;20563;-65
2023/09/20 02:15:15;;;;;;;3.50;1.20;;;18.00;93.10;;;;;;5071362;28;20208;-66
2023/09/20 02:17:42;;;;;;;3.85;1.55;;;18.00;93.10;;;;;;5084333;28;20563;-66
2023/09/20 02:20:12;;;;;;;2.13;1.30;;;18.00;93.10;;;;;;5077365;28;20254;-66
2023/09/20 02:22:40;;;;;;;1.60;1.40;;;17.90;93.10;;;;;;5083509;28;20556;-66
2023/09/20 02:25:12;;;;;;;4.50;1.63;;;17.90;93.10;;;;;;5091230;28;20197;-66
2023/09/20 02:27:43;;;;;;;3.95;1.73;;;17.90;93.50;;;;;;5080462;28;20288;-66
2023/09/20 02:30:15;;;;;;;3.75;1.58;;;17.80;93.20;;;;;;5089711;28;20188;-66
2023/09/20 02:32:42;;;;;;;3.90;1.48;;;17.80;93.30;;;;;;5083469;28;20284;-66
2023/09/20 02:35:11;;;;;;;4.28;1.55;;;17.80;93.30;;;;;;5064235;28;20207;-66
2023/09/20 02:37:40;;;;;;;2.55;1.50;;;17.80;93.30;;;;;;5083391;28;20215;-66
2023/09/20 02:40:11;;;;;;;3.40;1.63;;;17.80;93.40;;;;;;5089421;28;20201;-66
2023/09/20 02:42:46;;;;;;;3.70;1.60;;;17.70;93.40;;;;;;5087399;28;20189;-67
2023/09/20 02:45:13;;;;;;;3.38;1.52;;;17.70;93.50;;;;;;5089476;28;20340;-67
2023/09/20 02:47:42;;;;;;;1.67;1.30;;;17.70;93.60;;;;;;5072298;28;20204;-67
2023/09/20 02:50:11;;;;;;;2.95;1.42;;;17.70;93.60;;;;;;5089486;28;20257;-67
2023/09/20 02:52:39;;;;;;;3.65;1.42;;;17.70;93.60;;;;;;5087571;28;20333;-67
2023/09/20 02:55:07;;;;;;;1.40;1.15;;;17.80;93.60;;;;;;5088570;28;20201;-67
2023/09/20 02:57:36;;;;;;;2.28;1.20;;;17.80;93.60;;;;;;5087029;28;20287;-67
2023/09/20 03:00:15;;;;;;;2.92;1.50;;;17.70;93.60;;;;;;5070043;28;20197;-67
2023/09/20 03:02:45;;;;;;;3.47;1.85;;;17.70;93.60;;;;;;5087322;28;20360;-67
2023/09/20 03:05:15;;;;;;;3.38;1.50;;;17.70;93.70;;;;;;5070669;28;20246;-67
2023/09/20 03:07:44;;;;;;;2.53;1.30;;;17.60;93.70;;;;;;5073797;28;20203;-67
2023/09/20 03:10:13;;;;;;;2.30;1.77;;;17.60;93.80;;;;;;5072481;28;20204;-67
2023/09/20 03:12:44;;;;;;;3.72;1.60;;;17.60;93.90;;;;;;5064863;28;20224;-67
2023/09/20 03:15:17;;;;;;;2.40;1.60;;;17.60;93.90;;;;;;5082205;28;20551;-64
2023/09/20 03:17:45;;;;;;;2.97;1.77;;;17.60;93.90;;;;;;5066098;28;20201;-67
2023/09/20 03:20:16;;;;;;;1.88;1.40;;;17.60;93.90;;;;;;5088719;28;20305;-67
2023/09/20 03:22:46;;;;;;;1.60;1.13;;;17.60;93.90;;;;;;5069174;28;20220;-65
2023/09/20 03:25:14;;;;;;;3.55;1.48;;;17.60;93.90;;;;;;5088031;28;20205;-65
2023/09/20 03:27:43;;;;;;;2.67;1.55;;;17.70;93.90;;;;;;5069834;28;20235;-65
2023/09/20 03:30:13;;;;;;;3.40;1.77;;;17.60;93.90;;;;;;5071079;28;20204;-66
2023/09/20 03:32:44;;;;;;;1.90;1.40;;;17.50;94.00;;;;;;5086750;28;20196;-65
2023/09/20 03:35:14;;;;;;;3.67;1.77;;;17.50;94.10;;;;;;5086222;28;20209;-65
2023/09/20 03:37:43;;;;;;;3.42;1.42;;;17.50;94.10;;;;;;5085240;28;20200;-66
2023/09/20 03:40:16;;;;;;;4.10;1.90;;;17.60;94.10;;;;;;5087635;28;20205;-66
2023/09/20 03:42:44;;;;;;;1.67;1.38;;;17.50;94.00;;;;;;5089277;28;20188;-66
2023/09/20 03:45:14;;;;;;;2.65;1.52;;;17.50;94.10;;;;;;5089322;28;20252;-66
2023/09/20 03:47:44;;;;;;;4.70;2.13;;;17.50;94.10;;;;;;5068709;28;20655;-66
2023/09/20 03:50:13;;;;;;;2.13;1.73;;;17.50;94.20;;;;;;5086841;28;20536;-67
2023/09/20 03:52:41;;;;;;;2.55;1.40;;;17.50;94.20;;;;;;5069066;28;20291;-66
2023/09/20 03:55:08;;;;;;;2.95;1.42;;;17.50;94.20;;;;;;5086216;28;20211;-66
2023/09/20 03:57:37;;;;;;;2.63;1.40;;;17.50;94.20;;;;;;5077084;28;20567;-66
2023/09/20 04:00:07;;;;;;;2.20;1.58;;;17.50;94.20;;;;;;5086123;28;20267;-66
2023/09/20 04:02:41;;;;;;;2.10;1.38;;;17.50;94.30;;;;;;5087657;28;20239;-66
2023/09/20 04:05:15;;;;;;;2.47;1.63;;;17.50;94.30;;;;;;5068636;28;20200;-67
2023/09/20 04:07:44;;;;;;;1.42;1.20;;;17.50;94.30;;;;;;5089333;28;20212;-66
2023/09/20 04:10:13;;;;;;;3.35;1.60;;;17.40;94.30;;;;;;5067835;28;20634;-66
2023/09/20 04:12:40;;;;;;;3.03;1.60;;;17.40;94.40;;;;;;5069485;28;20193;-67
2023/09/20 04:15:09;;;;;;;2.25;1.60;;;17.40;94.50;;;;;;5067783;28;20196;-66
2023/09/20 04:17:36;;;;;;;3.67;1.52;;;17.40;94.50;;;;;;5087942;28;20204;-66
2023/09/20 04:20:06;;;;;;;1.67;1.50;;;17.40;94.50;;;;;;5086168;28;20269;-67
2023/09/20 04:22:34;;;;;;;3.88;1.60;;;17.40;94.50;;;;;;5069035;28;20269;-66
2023/09/20 04:25:02;;;;;;;3.80;1.48;;;17.40;94.50;;;;;;5064112;28;20209;-66
2023/09/20 04:27:29;;;;;;;2.83;1.60;;;17.40;94.60;;;;;;5069875;28;20224;-66
2023/09/20 04:29:57;;;;;;;2.72;1.55;;;17.40;94.50;;;;;;5069457;28;20314;-66
2023/09/20 04:32:24;;;;;;;2.63;1.63;;;17.40;94.50;;;;;;5086433;28;20200;-66
2023/09/20 04:34:53;;;;;;;1.30;1.20;;;17.30;94.60;;;;;;5069172;28;20768;-66
2023/09/20 04:37:25;;;;;;;2.40;1.40;;;17.30;94.70;;;;;;5086471;28;20212;-66
2023/09/20 04:39:53;;;;;;;3.33;1.90;;;17.20;94.70;;;;;;5086875;28;20203;-66
2023/09/20 04:42:21;;;;;;;3.60;1.73;;;17.20;94.80;;;;;;5087237;28;20283;-66
2023/09/20 04:44:49;;;;;;;2.90;1.70;;;17.20;94.90;;;;;;5070135;28;20196;-66
2023/09/20 04:47:17;;;;;;;3.75;1.75;;;17.20;94.90;;;;;;5069559;28;20203;-67
2023/09/20 04:49:45;;;;;;;1.95;1.58;;;17.20;94.80;;;;;;5069448;28;20409;-66
2023/09/20 04:52:15;;;;;;;2.42;1.83;;;17.30;94.80;;;;;;5087539;28;20524;-66
2023/09/20 04:54:45;;;;;;;2.03;1.80;;;17.30;94.80;;;;;;5084660;28;20196;-66
2023/09/20 04:57:13;;;;;;;3.85;2.00;;;17.30;94.80;;;;;;5067667;28;20721;-66
2023/09/20 04:59:42;;;;;;;3.45;1.65;;;17.30;94.80;;;;;;5070056;28;20516;-66
2023/09/20 05:02:09;;;;;;;4.13;1.75;;;17.30;94.90;;;;;;5077782;28;20680;-66
2023/09/20 05:04:38;;;;;;;4.80;2.20;;;17.30;94.90;;;;;;5059977;28;20199;-66
2023/09/20 05:07:06;;;;;;;3.72;1.90;;;17.30;95.30;;;;;;5086666;28;20211;-65
2023/09/20 05:09:36;;;;;;;3.58;1.92;;;17.30;95.00;;;;;;5085611;28;20203;-66
2023/09/20 05:12:09;;;;;;;4.53;2.10;;;17.30;95.00;;;;;;5087213;28;20555;-65
2023/09/20 05:14:36;;;;;;;2.53;1.88;;;17.30;95.10;;;;;;5082594;28;20735;-66
2023/09/20 05:17:04;;;;;;;4.70;1.95;;;17.30;95.20;;;;;;5087470;28;20254;-66
2023/09/20 05:19:33;;;;;;;2.55;1.80;;;17.30;95.20;;;;;;5085069;28;20657;-66
2023/09/20 05:22:00;;;;;;;2.65;1.75;;;17.30;95.20;;;;;;5086763;28;20240;-66
2023/09/20 05:24:28;;;;;;;1.95;1.80;;;17.30;95.20;;;;;;5068716;28;20209;-66
2023/09/20 05:26:55;;;;;;;2.47;1.60;;;17.30;95.20;;;;;;5088704;28;20269;-66
2023/09/20 05:29:23;;;;;;;2.33;2.00;;;17.40;95.30;;;;;;5085399;28;20262;-65
2023/09/20 05:31:50;;;;;;;3.88;2.17;;;17.40;95.30;;;;;;5069337;28;20193;-65
2023/09/20 05:34:17;;;;;;;2.72;1.58;;;17.40;95.30;;;;;;5083982;28;20239;-65
2023/09/20 05:36:45;;;;;;;6.13;1.63;;;17.40;95.70;;;;;;5068590;28;20557;-66
2023/09/20 05:39:12;;;;;;;2.17;1.63;;;17.50;95.40;;;;;;5087978;28;20632;-66
2023/09/20 05:41:39;;;;;;;3.85;2.10;;;17.50;95.40;;;;;;5088041;28;20212;-66
2023/09/20 05:44:07;;;;;;;5.28;2.00;;;17.60;95.50;;;;;;5086340;28;20209;-65
2023/09/20 05:46:35;;;;;;;3.75;2.03;;;17.60;95.60;;;;;;5087702;28;20233;-66
2023/09/20 05:49:02;;;;;;;5.00;2.25;;;17.60;95.60;;;;;;5074802;28;20279;-66
2023/09/20 05:51:30;;;;;;;2.13;1.90;;;17.60;95.60;;;;;;5090458;28;20207;-66
2023/09/20 05:53:57;;;;;;;2.90;1.60;;;17.70;95.60;;;;;;5072485;28;20731;-65
2023/09/20 05:56:25;;;;;;;3.38;1.75;;;17.70;95.60;;;;;;5083536;28;20250;-66
2023/09/20 05:58:53;;;;;;;1.77;1.30;;;17.70;95.50;;;;;;5090192;28;20269;-66
2023/09/20 06:01:20;;;;;;;3.38;1.50;;;17.80;95.60;;;;;;5070802;28;20691;-64
2023/09/20 06:03:48;;;;;;;2.08;1.33;;;17.80;95.50;;;;;;5084092;28;20250;-65
2023/09/20 06:06:15;;;;;;;1.90;1.80;;;17.90;95.50;;;;;;5084338;28;20217;-65
2023/09/20 06:08:46;;;;;;;2.50;1.70;;;17.90;95.50;;;;;;5083720;28;20262;-65
2023/09/20 06:11:13;;;;;;;1.80;1.63;;;17.90;95.50;;;;;;5080431;28;20565;-65
2023/09/20 06:13:40;;;;;;;4.88;2.03;;;18.00;95.50;;;;;;5080927;28;20300;-64
2023/09/20 06:16:08;;;;;;;2.53;1.80;;;18.00;95.50;;;;;;5087615;28;20200;-66
2023/09/20 06:18:36;;;;;;;3.38;1.60;;;18.00;95.50;;;;;;5069083;28;20213;-65
2023/09/20 06:21:08;;;;;;;4.10;2.00;;;18.00;95.50;;;;;;5078634;28;20332;-65
2023/09/20 06:23:36;;;;;;;2.35;1.58;;;18.10;95.60;;;;;;5069546;28;20189;-66
2023/09/20 06:26:09;;;;;;;3.20;2.00;;;18.10;95.50;;;;;;5078193;28;20200;-65
2023/09/20 06:28:36;;;;;;;4.22;1.70;;;18.10;95.50;;;;;;5078250;28;20196;-66
2023/09/20 06:31:04;;;;;;;2.38;1.60;;;18.20;95.60;;;;;;5085607;28;20220;-65
2023/09/20 06:33:31;;;;;;;2.92;1.70;;;18.20;95.50;;;;;;5090836;28;20207;-66
2023/09/20 06:35:59;;;;;;;4.07;1.65;;;18.30;95.50;;;;;;5095172;28;20195;-65
2023/09/20 06:38:27;;;;;;;2.95;1.70;;;18.30;95.50;;;;;;5095761;28;20193;-66
2023/09/20 06:40:55;;;;;;;2.53;1.65;;;18.30;95.50;;;;;;5089057;28;20276;-66
2023/09/20 06:43:22;;;;;;;4.22;1.55;;;18.40;95.50;;;;;;5089090;28;20615;-66
2023/09/20 06:45:51;;;;;;;2.42;1.90;;;18.40;95.50;;;;;;5087033;28;20194;-65
2023/09/20 06:48:20;;;;;;;1.80;1.55;;;18.40;95.50;;;;;;5084211;28;20516;-65
2023/09/20 06:50:49;;;;;;;1.77;1.52;;;18.40;95.40;;;;;;5076424;28;20197;-65
2023/09/20 06:53:17;;;;;;;2.28;1.20;;;18.40;95.40;;;;;;5087219;28;20203;-66
2023/09/20 06:55:46;;;;;;;1.77;1.40;;;18.50;95.40;;;;;;5085277;28;20737;-65
2023/09/20 06:58:13;;;;;;;4.93;1.77;;;18.50;95.40;;;;;;5080561;28;20203;-65
2023/09/20 07:00:41;;;;;;;4.80;1.40;;;18.60;95.50;;;;;;5083999;28;20188;-65
2023/09/20 07:03:09;;;;;;;2.70;1.30;;;18.60;95.40;;;;;;5085984;28;20208;-64
2023/09/20 07:05:36;;;;;;;2.97;1.73;;;18.70;95.40;;;;;;5076512;28;20642;-64
2023/09/20 07:08:04;;;;;;;4.93;1.75;;;18.80;95.40;;;;;;5086999;28;20375;-65
2023/09/20 07:10:32;;;;;;;2.50;1.70;;;18.80;95.30;;;;;;5087690;28;20246;-64
2023/09/20 07:13:05;;;;;;;3.00;1.50;;;18.90;95.40;;;;;;5087499;28;20528;-65
2023/09/20 07:15:34;;;;;;;7.38;1.77;;;18.90;95.40;;;;;;5067465;28;20200;-65
2023/09/20 07:18:11;;;;;;;2.15;1.50;;;19.00;95.50;;;;;;5092728;28;20200;-65
2023/09/20 07:20:39;;;;;;;2.75;1.60;;;19.00;95.40;;;;;;5087464;28;20659;-64
2023/09/20 07:23:08;;;;;;;4.25;1.80;;;19.00;95.50;;;;;;5088186;28;20208;-65
2023/09/20 07:25:36;;;;;;;2.58;1.42;;;19.10;95.40;;;;;;5088873;28;20311;-65
2023/09/20 07:28:06;;;;;;;2.78;1.65;;;19.10;95.50;;;;;;5080861;28;20220;-65
2023/09/20 07:30:39;;;;;;;2.15;1.50;;;19.10;95.50;;;;;;5088169;28;20184;-65
2023/09/20 07:33:11;;;;;;;1.45;1.10;;;19.20;95.50;;;;;;5086763;28;20291;-65
2023/09/20 07:35:47;;;;;;;2.55;1.30;;;19.30;95.50;;;;;;5087808;28;20196;-65
2023/09/20 07:38:25;;;;;;;1.20;1.17;;;19.30;95.40;;;;;;5081018;28;20322;-65
2023/09/20 07:40:53;;;;;;;2.78;1.75;;;19.30;95.40;;;;;;5088326;28;20614;-65
2023/09/20 07:43:22;;;;;;;4.45;1.38;;;19.30;95.40;;;;;;5087336;28;20682;-65
2023/09/20 07:45:49;;;;;;;1.48;1.30;;;19.30;95.40;;;;;;5087441;28;20192;-65
2023/09/20 07:48:21;;;;;;;1.38;1.25;;;19.30;95.40;;;;;;5086699;28;20270;-65
2023/09/20 07:50:50;;;;;;;3.35;1.90;;;19.30;95.50;;;;;;5078562;28;20204;-64
2023/09/20 07:53:18;;;;;;;2.47;1.55;;;19.40;95.60;;;;;;5085682;28;20192;-65
2023/09/20 07:56:00;;;;;;;3.25;1.60;;;19.40;95.50;;;;;;5086076;28;20347;-64
2023/09/20 07:58:28;;;;;;;1.65;1.55;;;19.60;95.40;;;;;;5086921;28;20292;-64
2023/09/20 08:00:57;;;;;;;1.73;1.60;;;19.80;95.40;;;;;;5085421;28;20673;-65
2023/09/20 08:03:25;;;;;;;3.17;1.58;;;19.90;95.20;;;;;;5068142;28;20327;-65
2023/09/20 08:05:55;;;;;;;4.72;1.60;;;20.00;95.10;;;;;;5086648;28;20192;-65
2023/09/20 08:08:22;;;;;;;3.10;1.80;;;20.20;95.00;;;;;;5085735;28;20579;-65
2023/09/20 08:10:49;;;;;;;2.17;1.75;;;20.40;94.80;;;;;;5086861;28;20551;-65
2023/09/20 08:13:16;;;;;;;3.72;1.58;;;20.50;94.70;;;;;;5087602;28;20220;-65
2023/09/20 08:15:45;;;;;;;3.50;1.88;;;20.50;94.70;;;;;;5085389;28;20211;-65
2023/09/20 08:21:00;;;;;;;4.25;1.50;;;20.30;94.50;;;;;;5076059;28;20271;-65
2023/09/20 09:02:13;;;;;;;1.67;1.40;;;19.80;95.50;;;;;;5081696;28;20207;-69
2023/09/20 09:04:44;;;;;;;1.77;1.35;;;19.80;95.50;;;;;;5080212;28;20217;-69
2023/09/20 09:07:11;;;;;;;2.90;1.80;;;19.80;95.60;;;;;;5081055;28;20272;-69
2023/09/20 09:09:40;;;;;;;2.53;1.45;;;19.80;95.80;;;;;;5084878;28;20266;-69
2023/09/20 09:12:07;;;;;;;3.58;1.80;;;19.70;95.80;;;;;;5082757;28;20193;-69
2023/09/20 09:14:35;;;;;;;1.77;1.38;;;19.80;96.00;;;;;;5089419;28;20223;-69
2023/09/20 09:17:03;;;;;;;1.17;1.10;;;19.80;96.00;;;;;;5082140;28;20283;-69
2023/09/20 09:19:30;;;;;;;1.52;1.40;;;19.70;96.00;;;;;;5086197;28;20232;-68
2023/09/20 09:21:58;;;;;;;1.40;1.25;;;19.80;96.10;;;;;;5085049;28;20213;-69
2023/09/20 09:24:27;;;;;;;4.00;1.42;;;19.80;96.10;;;;;;5089046;28;20249;-69
2023/09/20 09:27:05;;;;;;;2.83;1.60;;;19.80;96.20;;;;;;5086164;28;20490;-68
2023/09/20 09:29:32;;;;;;;4.68;1.40;;;19.70;96.10;;;;;;5086204;28;20196;-69
2023/09/20 09:32:01;;;;;;;2.17;1.30;;;19.80;96.30;;;;;;5089411;28;20300;-68
2023/09/20 09:34:29;;;;;;;1.45;1.35;;;19.70;96.30;;;;;;5087571;28;20253;-68
2023/09/20 09:36:57;;;;;;;1.45;1.27;;;19.80;96.30;;;;;;5088096;28;20189;-68
2023/09/20 09:39:25;;;;;;;1.95;1.30;;;19.80;96.30;;;;;;5089141;28;20635;-68
2023/09/20 09:41:53;;;;;;;3.05;1.30;;;19.80;96.30;;;;;;5089991;28;20224;-68
2023/09/20 09:44:21;;;;;;;2.28;1.33;;;19.90;96.30;;;;;;5090241;28;20570;-69
2023/09/20 09:46:49;;;;;;;2.03;1.23;;;20.00;96.20;;;;;;5089828;28;20193;-69
2023/09/20 09:49:18;;;;;;;3.00;1.67;;;20.20;96.20;;;;;;5089237;28;20606;-68
2023/09/20 09:51:50;;;;;;;2.55;1.48;;;20.80;95.90;;;;;;5088906;28;20273;-69
2023/09/20 09:54:20;;;;;;;3.25;1.30;;;21.90;95.20;;;;;;5087010;28;20648;-69
2023/09/20 09:56:48;;;;;;;2.53;1.42;;;23.50;93.90;;;;;;5089901;28;20204;-69
2023/09/20 09:59:15;;;;;;;4.88;1.55;;;25.10;92.10;;;;;;5089949;28;20686;-69
2023/09/20 10:01:44;;;;;;;1.83;1.58;;;26.70;90.20;;;;;;5087969;28;20263;-69
2023/09/20 10:04:12;;;;;;;3.13;2.00;;;28.00;85.90;;;;;;5094825;28;20591;-70
2023/09/20 10:06:50;;;;;;;2.00;1.50;;;29.20;80.80;;;;;;5089878;28;20193;-69
2023/09/20 10:09:25;;;;;;;3.85;1.45;;;30.00;77.70;;;;;;5085027;28;20205;-70
2023/09/20 10:11:52;;;;;;;1.45;1.33;;;30.70;75.00;;;;;;5089673;28;20333;-70
2023/09/20 10:14:22;;;;;;;1.25;1.25;;;31.30;71.80;;;;;;5089512;28;20639;-70
2023/09/20 10:16:50;;;;;;;2.92;1.55;;;31.50;69.90;;;;;;5087420;28;20303;-70
2023/09/20 10:19:17;;;;;;;3.50;1.60;;;31.70;68.70;;;;;;5088167;28;20570;-70
2023/09/20 10:22:07;;;;;;;2.35;1.60;;;32.00;67.30;;;;;;5086228;28;20199;-70
2023/09/20 10:24:50;;;;;;;4.75;1.73;;;32.10;65.70;;;;;;5089097;28;20380;-69
2023/09/20 10:27:19;;;;;;;1.55;1.45;;;32.20;64.30;;;;;;5087762;28;20188;-70
2023/09/20 10:30:00;;;;;;;1.38;1.27;;;32.20;63.40;;;;;;5086955;28;20885;-69
2023/09/20 10:32:32;;;;;;;1.45;1.35;;;32.00;62.90;;;;;;5087023;28;20371;-70
2023/09/20 10:35:27;;;;;;;2.47;1.42;;;31.00;62.90;;;;;;5086479;28;20231;-69
2023/09/20 10:38:20;;;;;;;1.92;1.30;;;29.60;64.90;;;;;;5069072;28;20200;-70
2023/09/20 10:41:05;;;;;;;1.90;1.63;;;28.50;67.30;;;;;;5088289;28;20509;-70
2023/09/20 10:43:50;;;;;;;1.40;1.25;;;27.60;69.10;;;;;;5088041;28;20224;-70
2023/09/20 10:46:19;;;;;;;1.70;1.60;;;27.20;70.80;;;;;;5085179;28;20209;-69
2023/09/20 10:48:51;;;;;;;3.55;1.52;;;27.60;71.20;;;;;;5085826;28;20544;-69
2023/09/20 10:51:52;;;;;;;1.40;1.30;;;28.20;70.40;;;;;;5082842;28;20733;-69
2023/09/20 10:54:20;;;;;;;1.80;1.40;;;29.00;69.20;;;;;;5073251;28;20272;-69
2023/09/20 10:57:07;;;;;;;2.85;1.38;;;30.00;67.70;;;;;;5081939;28;20184;-69
2023/09/20 10:59:36;;;;;;;1.42;1.33;;;30.60;67.10;;;;;;5088003;28;20241;-69
2023/09/20 11:02:12;;;;;;;1.88;1.20;;;31.10;65.40;;;;;;5087822;28;20646;-69
2023/09/20 11:04:40;;;;;;;2.63;1.75;;;31.10;64.20;;;;;;5088503;28;20594;-69
2023/09/20 11:07:09;;;;;;;1.50;1.40;;;30.70;64.10;;;;;;5086937;28;20201;-69
2023/09/20 11:09:38;;;;;;;1.50;1.33;;;30.30;64.40;;;;;;5088840;28;20220;-69
2023/09/20 11:12:08;;;;;;;3.83;1.20;;;30.20;64.80;;;;;;5086740;28;20184;-69
2023/09/20 11:14:37;;;;;;;1.20;1.20;;;30.10;65.10;;;;;;5088343;28;20273;-69
2023/09/20 11:17:05;;;;;;;2.33;1.20;;;29.80;65.20;;;;;;5087864;28;20208;-69
2023/09/20 11:19:33;;;;;;;1.92;1.55;;;29.40;66.00;;;;;;5088452;28;20243;-69
2023/09/20 11:22:01;;;;;;;1.20;1.10;;;28.80;66.80;;;;;;5087089;28;20685;-70
2023/09/20 11:24:28;;;;;;;1.40;1.30;;;28.20;68.20;;;;;;5088875;28;20215;-70
2023/09/20 11:26:56;;;;;;;1.30;1.15;;;27.60;69.30;;;;;;5088214;28;20193;-70
2023/09/20 11:29:26;;;;;;;1.33;1.13;;;27.10;70.40;;;;;;5087937;28;20216;-70
2023/09/20 11:31:57;;;;;;;1.20;1.10;;;26.70;71.40;;;;;;5087361;28;20212;-70
2023/09/20 11:34:25;;;;;;;4.78;1.40;;;26.30;72.40;;;;;;5087118;28;20195;-70
2023/09/20 11:36:54;;;;;;;3.17;1.17;;;26.20;73.40;;;;;;5085723;28;20631;-70
2023/09/20 11:39:31;;;;;;;1.30;1.20;;;26.30;73.80;;;;;;5087528;28;20525;-69
2023/09/20 11:42:05;;;;;;;1.52;1.40;;;26.60;73.40;;;;;;5087303;28;20188;-69
2023/09/20 11:44:37;;;;;;;2.60;1.30;;;26.80;72.90;;;;;;5085227;28;20211;-69
2023/09/20 11:47:13;;;;;;;1.52;1.30;;;27.00;73.00;;;;;;5087966;28;20189;-68
2023/09/20 11:52:24;;;;;;;4.47;1.60;;;26.30;74.00;;;;;;5073807;28;20304;-69
2023/09/20 11:54:58;;;;;;;1.40;1.30;;;26.10;74.80;;;;;;5088446;28;20200;-69
2023/09/20 11:57:26;;;;;;;3.83;1.40;;;26.10;75.20;;;;;;5087547;28;20335;-69
2023/09/20 11:59:55;;;;;;;1.45;1.23;;;26.20;74.90;;;;;;5086289;28;20196;-69
2023/09/20 12:02:22;;;;;;;1.58;1.45;;;26.40;74.70;;;;;;5086518;28;20983;-69
2023/09/20 12:04:51;;;;;;;2.53;1.10;;;26.60;74.40;;;;;;5078522;28;20205;-69
2023/09/20 12:07:18;;;;;;;2.42;1.25;;;26.80;74.10;;;;;;5085148;28;20224;-69
2023/09/20 12:09:45;;;;;;;1.50;1.40;;;27.10;73.70;;;;;;5086926;28;20249;-69
2023/09/20 12:12:12;;;;;;;1.20;1.20;;;27.30;73.10;;;;;;5085922;28;20716;-69
2023/09/20 12:14:39;;;;;;;1.25;1.15;;;27.30;73.00;;;;;;5087128;28;20310;-69
2023/09/20 12:17:09;;;;;;;1.50;1.27;;;27.40;72.90;;;;;;5083724;28;20342;-69
2023/09/20 12:19:36;;;;;;;1.60;1.30;;;27.70;72.80;;;;;;5068079;28;20256;-70
2023/09/20 12:22:03;;;;;;;1.55;1.15;;;27.90;72.30;;;;;;5083025;28;20201;-70
2023/09/20 12:24:30;;;;;;;1.52;1.10;;;28.00;72.00;;;;;;5087883;28;20243;-70
2023/09/20 12:26:57;;;;;;;1.13;1.00;;;28.10;71.60;;;;;;5086237;28;20288;-69
2023/09/20 12:29:24;;;;;;;1.10;1.00;;;28.30;71.10;;;;;;5085907;28;20254;-70
2023/09/20 12:31:55;;;;;;;2.30;1.10;;;28.50;70.40;;;;;;5085702;28;20193;-70
2023/09/20 12:34:23;;;;;;;1.42;1.33;;;28.60;70.20;;;;;;5086598;28;20211;-70
2023/09/20 12:36:51;;;;;;;1.10;1.10;;;28.60;69.60;;;;;;5086509;28;20543;-69
2023/09/20 12:39:18;;;;;;;4.00;1.45;;;28.50;69.80;;;;;;5087444;28;20192;-69
2023/09/20 12:41:46;;;;;;;2.47;1.10;;;28.60;69.40;;;;;;5087093;28;20193;-69
2023/09/20 12:44:13;;;;;;;1.30;1.20;;;28.70;69.10;;;;;;5086801;28;20586;-69
2023/09/20 12:46:40;;;;;;;1.48;1.25;;;28.70;69.00;;;;;;5084562;28;20216;-69
2023/09/20 12:49:07;;;;;;;1.33;1.30;;;28.90;69.00;;;;;;5082452;28;20193;-69
2023/09/20 12:51:36;;;;;;;0.90;0.90;;;29.00;68.50;;;;;;5086091;28;20287;-69
2023/09/20 12:54:05;;;;;;;2.50;1.20;;;29.00;68.50;;;;;;5088738;28;20286;-69
2023/09/20 12:56:32;;;;;;;1.20;1.20;;;29.00;68.70;;;;;;5087418;28;20261;-69
2023/09/20 12:59:00;;;;;;;1.95;1.15;;;29.00;68.90;;;;;;5089200;28;20204;-69
2023/09/20 13:01:27;;;;;;;1.52;1.15;;;28.80;69.10;;;;;;5093561;28;20203;-69
2023/09/20 13:03:54;;;;;;;1.30;1.20;;;28.60;69.50;;;;;;5082544;28;20261;-69
2023/09/20 13:06:23;;;;;;;8.68;1.00;;;28.30;69.70;;;;;;5089883;28;20227;-69
2023/09/20 13:08:52;;;;;;;1.45;1.35;;;28.00;70.10;;;;;;5107775;28;20209;-70
2023/09/20 13:11:19;;;;;;;1.60;1.50;;;27.70;70.60;;;;;;5084724;28;20754;-70
2023/09/20 13:13:47;;;;;;;1.83;1.38;;;27.50;70.70;;;;;;5089184;28;20188;-69
2023/09/20 13:16:14;;;;;;;1.45;1.35;;;27.20;71.10;;;;;;5090415;28;20195;-70
2023/09/20 13:18:43;;;;;;;1.38;1.13;;;27.10;71.70;;;;;;5090722;28;20193;-69
2023/09/20 13:21:10;;;;;;;1.52;1.08;;;26.90;71.90;;;;;;5091325;28;20188;-69
2023/09/20 13:23:37;;;;;;;1.20;1.10;;;26.70;72.00;;;;;;5071062;28;20743;-69
2023/09/20 13:26:06;;;;;;;1.23;1.15;;;26.60;72.40;;;;;;5091130;28;20196;-69
2023/09/20 13:28:33;;;;;;;1.27;1.00;;;26.40;72.80;;;;;;5089896;28;20192;-69
2023/09/20 13:31:01;;;;;;;1.20;1.10;;;26.30;73.30;;;;;;5089968;28;20235;-69
2023/09/20 13:33:28;;;;;;;1.38;1.08;;;26.30;73.80;;;;;;5085489;28;20261;-69
2023/09/20 13:35:55;;;;;;;1.00;0.90;;;26.30;74.00;;;;;;5088071;28;20563;-69
2023/09/20 13:38:23;;;;;;;0.95;0.90;;;26.30;74.20;;;;;;5087043;28;20281;-69
2023/09/20 13:40:51;;;;;;;1.00;1.00;;;26.30;74.20;;;;;;5086724;28;20197;-69
2023/09/20 13:43:20;;;;;;;0.95;0.95;;;26.20;74.30;;;;;;5086061;28;20278;-69